Details From GCTS - Tenerife Sur
To GCLA - La Palma
Flight Number -
Tags generated
Created
Modified
Stats Distance 74 nm / 138 km
Max Altitude 2,300 ft / 701 m
Waypoints 3
Social Downloads 1
Likes 0
Share VATSIM

Download

Looking for another format? Having issues loading an existing format? Contact us
Advertisement - Login to hide

Notes

Basic altitude profile: - Ascent Rate: 2500ft/min - Ascent Speed: 250kts - Cruise Altitude: 35000ft - Cruise Speed: 420kts - Descent Rate: 1500ft/min - Descent Speed: 250kts Options: - Use NATs: yes - Use PACOTS: yes - Use low airways: yes - Use high airways: yes

Route

GCTS TFS GCLA

ID Type Via Altitude (ft/m) Position (lat/lon) Dist (leg/tot) Name
O GCTS APT - 0 / 0 28.04448 / -16.57249 - / 0 nm Tenerife Sur
TFS VOR - 2,300 / 701 28.00245 / -16.68793 6 / 6 nm TENERIFE SUR VOR-DME
O GCLA APT - 0 / 0 28.62648 / -17.75561 67 / 74 nm La Palma

Altitude Profile

Advertisement - Login to hide

GCTS

Details ICAO GCTS (TFS)
Name Tenerife Sur
Region Canary Islands
Timezone Atlantic/Canary (UTC+1.0)
Stats Elevation 208 ft / 63 m (AMSL)
Location 28.044400° -16.572500°
Runways 1
Magnetic Variation 4.958° W

METAR

GCTS 252130Z 06012KT 9999 BKN040 20/13 Q1022 NOSIG

Decode

TAF

TAF GCTS 252000Z 2521/2621 03009KT 9999 FEW030 TX24/2614Z TN16/2605Z BECMG 2609/2611 08022KT PROB40 TEMPO 2612/2619 01021G32KT

Decode

Departure Runways

ID Width Length Bearing (true/mag) Surface Threshold Overrun Markings Lighting
08 148 ft / 45 m 10,489 ft / 3,197 m 68.47° / 73.43° ASPHALT 0 ft / 0 m 0 ft / 0 m PREC-APP EDGE THRESHOLD CALVERT-ILS REIL-OMNI
26 148 ft / 45 m 10,489 ft / 3,197 m 248.49° / 253.45° ASPHALT 0 ft / 0 m 0 ft / 0 m PREC-APP EDGE THRESHOLD CALVERT-ILS REIL-OMNI

GCLA

Details ICAO GCLA (SPC)
Name La Palma
Region Canary Islands
Timezone Atlantic/Canary (UTC+1.0)
Stats Elevation 106 ft / 32 m (AMSL)
Location 28.626400° -17.755600°
Runways 1
Magnetic Variation 5.361° W

METAR

GCLA 252130Z AUTO 02009KT 9999 NCD 19/13 Q1023

Decode

TAF

TAF GCLA 252000Z 2521/2621 36009KT 9999 BKN030 TX22/2614Z TN16/2605Z PROB40 TEMPO 2603/2612 RA BKN014

Decode

Destination Runways

ID Width Length Bearing (true/mag) Surface Threshold Overrun Markings Lighting
18 148 ft / 45 m 7,225 ft / 2,202 m 179.01° / 184.37° ASPHALT 0 ft / 0 m 279 ft / 85 m UK-PREC-APP CENTERLINE EDGE THRESHOLD SALS
36 148 ft / 45 m 7,225 ft / 2,202 m 359.01° / 4.37° ASPHALT 0 ft / 0 m 243 ft / 74 m PREC-APP CENTERLINE EDGE THRESHOLD

Popular Alternatives